Time;durP1;ratioP1;P1;durP2;ratioP2;P2;SDS_P1;SDS_P2;PMS_P1;PMS_P2;Temp;Humidity;BMP_temperature;BMP_pressure;BME280_temperature;BME280_humidity;BME280_pressure;Samples;Min_cycle;Max_cycle;Signal;HPM_P1;HPM_P2
2023/01/09 00:00:48;;;;;;;;;;;;;;;2.91;99.80;97391.66;106781;1279;22938;-74
2023/01/09 00:03:23;;;;;;;;;;;;;;;2.90;99.60;97385.54;106863;1279;22519;-74
2023/01/09 00:05:50;;;;;;;;;;;;;;;2.89;99.37;97378.52;106694;1279;124720;-74
2023/01/09 00:08:17;;;;;;;;;;;;;;;2.89;99.51;97380.50;106748;1257;25312;-73
2023/01/09 00:10:44;;;;;;;;;;;;;;;2.89;99.52;97377.81;106495;1280;125323;-73
2023/01/09 00:13:12;;;;;;;;;;;;;;;2.88;99.41;97375.50;106729;1280;22822;-73
2023/01/09 00:15:39;;;;;;;;;;;;;;;2.87;99.24;97375.29;106645;1280;124858;-74
2023/01/09 00:18:06;;;;;;;;;;;;;;;2.85;99.00;97370.81;106699;1261;22522;-74
2023/01/09 00:20:33;;;;;;;;;;;;;;;2.84;98.91;97374.06;106713;1280;22948;-73
2023/01/09 00:22:59;;;;;;;;;;;;;;;2.81;98.68;97366.18;106623;1277;124410;-73
2023/01/09 00:25:26;;;;;;;;;;;;;;;2.80;98.97;97364.38;106741;1279;22530;-73
2023/01/09 00:27:53;;;;;;;;;;;;;;;2.79;98.81;97362.44;106614;1257;124209;-74
2023/01/09 00:30:20;;;;;;;;;;;;;;;2.76;98.61;97359.63;106619;1280;22837;-73
2023/01/09 00:32:46;;;;;;;;;;;;;;;2.73;98.31;97356.26;106686;1280;22553;-74
2023/01/09 00:35:14;;;;;;;;;;;;;;;2.70;98.30;97361.46;106535;1281;124479;-74
2023/01/09 00:37:41;;;;;;;;;;;;;;;2.64;98.14;97360.23;106677;1280;22519;-74
2023/01/09 00:40:09;;;;;;;;;;;;;;;2.63;98.33;97359.88;106532;1257;124294;-74
2023/01/09 00:42:36;;;;;;;;;;;;;;;2.59;98.09;97361.35;107096;1280;24212;-73
2023/01/09 00:45:07;;;;;;;;;;;;;;;2.54;97.87;97363.63;107152;1270;22676;-74
2023/01/09 00:47:43;;;;;;;;;;;;;;;2.51;97.88;97361.92;107594;1274;124052;-74
2023/01/09 00:50:17;;;;;;;;;;;;;;;2.47;97.73;97361.09;106673;1281;22515;-73
2023/01/09 00:52:45;;;;;;;;;;;;;;;2.42;97.67;97361.73;106511;1281;124072;-74
2023/01/09 00:55:13;;;;;;;;;;;;;;;2.39;97.83;97368.10;106607;1281;22526;-73
2023/01/09 00:57:39;;;;;;;;;;;;;;;2.35;97.60;97362.23;106506;1281;124582;-74
2023/01/09 01:00:07;;;;;;;;;;;;;;;2.31;97.40;97357.34;106653;1270;22502;-73
2023/01/09 01:02:34;;;;;;;;;;;;;;;2.25;97.05;97355.86;106679;1277;22742;-74
2023/01/09 01:07:46;;;;;;;;;;;;;;;2.12;97.15;97350.21;106663;1280;22552;-73
2023/01/09 01:10:19;;;;;;;;;;;;;;;2.06;97.29;97353.48;106600;1263;125398;-74
2023/01/09 01:12:46;;;;;;;;;;;;;;;2.00;97.42;97353.20;107572;1281;23310;-73
2023/01/09 01:15:14;;;;;;;;;;;;;;;1.95;97.44;97358.92;106630;1280;22526;-73
2023/01/09 01:17:41;;;;;;;;;;;;;;;1.91;97.59;97345.80;106585;1280;124034;-74
2023/01/09 01:20:11;;;;;;;;;;;;;;;1.88;97.71;97345.71;106633;1260;22714;-73
2023/01/09 01:22:38;;;;;;;;;;;;;;;1.85;97.67;97345.33;106726;1279;124465;-74
2023/01/09 01:25:04;;;;;;;;;;;;;;;1.81;97.50;97350.43;106761;1279;22648;-73
2023/01/09 01:27:31;;;;;;;;;;;;;;;1.77;97.77;97349.92;106569;1280;124926;-73
2023/01/09 01:29:58;;;;;;;;;;;;;;;1.74;97.83;97337.47;106608;1263;23921;-73
2023/01/09 01:32:25;;;;;;;;;;;;;;;1.72;98.11;97325.72;106593;1281;23248;-73
2023/01/09 01:34:52;;;;;;;;;;;;;;;1.70;98.16;97325.81;106525;1281;124371;-73
2023/01/09 01:37:20;;;;;;;;;;;;;;;1.66;98.16;97320.27;106650;1281;22534;-73
2023/01/09 01:39:47;;;;;;;;;;;;;;;1.64;98.38;97320.35;106414;1260;196556;-74
2023/01/09 01:42:14;;;;;;;;;;;;;;;1.61;98.24;97323.10;106698;1280;24303;-73
2023/01/09 01:45:00;;;;;;;;;;;;;;;1.58;98.31;97325.51;106674;1280;22674;-73
2023/01/09 01:47:49;;;;;;;;;;;;;;;1.54;98.43;97323.60;106557;1280;123946;-73
2023/01/09 01:50:19;;;;;;;;;;;;;;;1.50;98.26;97330.45;106571;1264;22648;-73
2023/01/09 01:52:49;;;;;;;;;;;;;;;1.50;98.66;97326.34;106461;1281;124028;-73
2023/01/09 01:55:17;;;;;;;;;;;;;;;1.47;98.67;97320.58;106616;1281;23963;-73
2023/01/09 01:57:47;;;;;;;;;;;;;;;1.45;98.85;97306.06;106510;1281;124203;-73
2023/01/09 02:00:14;;;;;;;;;;;;;;;1.44;99.13;97301.33;106620;1257;25198;-74
2023/01/09 02:02:42;;;;;;;;;;;;;;;1.45;99.51;97307.42;106684;1280;24360;-73
2023/01/09 02:05:09;;;;;;;;;;;;;;;1.44;99.17;97318.37;106579;1273;123920;-73
2023/01/09 02:07:35;;;;;;;;;;;;;;;1.40;99.12;97310.50;106664;1279;25327;-73
2023/01/09 02:10:03;;;;;;;;;;;;;;;1.39;99.58;97308.54;106620;1257;124087;-73
2023/01/09 02:12:29;;;;;;;;;;;;;;;1.38;99.82;97312.70;106629;1280;25331;-73
2023/01/09 02:14:59;;;;;;;;;;;;;;;1.39;99.91;97306.34;106568;1280;22682;-73
2023/01/09 02:17:26;;;;;;;;;;;;;;;1.40;99.99;97303.36;106475;1280;123958;-73
2023/01/09 02:19:58;;;;;;;;;;;;;;;1.41;99.89;97298.08;106496;1257;22254;-74
2023/01/09 02:22:28;;;;;;;;;;;;;;;1.41;100.00;97292.51;106607;1267;124018;-74
2023/01/09 02:25:01;;;;;;;;;;;;;;;1.40;99.97;97288.88;106536;1281;22524;-73
2023/01/09 02:27:28;;;;;;;;;;;;;;;1.39;99.96;97289.05;106423;1281;124083;-74
2023/01/09 02:30:01;;;;;;;;;;;;;;;1.39;99.99;97290.33;106535;1281;25309;-73
2023/01/09 02:32:30;;;;;;;;;;;;;;;1.38;99.89;97292.61;106482;1272;22623;-73
2023/01/09 02:35:17;;;;;;;;;;;;;;;1.37;99.87;97291.67;106367;1281;123959;-73
2023/01/09 02:38:13;;;;;;;;;;;;;;;1.35;99.84;97294.06;106496;1281;25210;-73
2023/01/09 02:40:45;;;;;;;;;;;;;;;1.35;100.00;97294.63;106016;1267;124047;-74
2023/01/09 02:43:13;;;;;;;;;;;;;;;1.35;100.00;97286.88;106051;1288;22692;-73
2023/01/09 02:45:39;;;;;;;;;;;;;;;1.34;100.00;97290.55;106295;1280;124488;-74
2023/01/09 02:48:09;;;;;;;;;;;;;;;1.33;100.00;97284.84;106257;1286;22661;-73
2023/01/09 02:50:56;;;;;;;;;;;;;;;1.32;99.95;97289.42;106282;1286;25412;-74
2023/01/09 02:53:22;;;;;;;;;;;;;;;1.30;100.00;97293.64;106133;1287;124530;-73
2023/01/09 02:55:58;;;;;;;;;;;;;;;1.28;99.98;97295.67;106128;1287;22531;-73
2023/01/09 02:58:27;;;;;;;;;;;;;;;1.26;99.87;97291.27;106055;1287;123942;-73
2023/01/09 03:01:05;;;;;;;;;;;;;;;1.26;100.00;97295.71;106120;1281;22531;-73
2023/01/09 03:03:35;;;;;;;;;;;;;;;1.25;100.00;97300.19;106128;1264;124337;-74
2023/01/09 03:06:22;;;;;;;;;;;;;;;1.26;100.00;97306.73;106260;1287;24625;-73
2023/01/09 03:08:58;;;;;;;;;;;;;;;1.26;100.00;97305.74;106199;1288;22526;-74
2023/01/09 03:11:27;;;;;;;;;;;;;;;1.25;100.00;97307.32;106109;1266;124389;-74
2023/01/09 03:13:56;;;;;;;;;;;;;;;1.25;100.00;97308.19;106201;1269;22537;-74
2023/01/09 03:16:24;;;;;;;;;;;;;;;1.23;100.00;97311.50;106451;1280;124250;-74
2023/01/09 03:18:52;;;;;;;;;;;;;;;1.22;100.00;97300.55;106626;1281;22517;-74
2023/01/09 03:21:20;;;;;;;;;;;;;;;1.20;100.00;97303.58;106630;1274;22501;-74
2023/01/09 03:23:48;;;;;;;;;;;;;;;1.19;100.00;97308.09;106527;1281;124484;-74
2023/01/09 03:26:15;;;;;;;;;;;;;;;1.17;100.00;97309.55;106558;1281;22929;-74
2023/01/09 03:28:42;;;;;;;;;;;;;;;1.16;100.00;97314.58;106524;1280;124239;-74
2023/01/09 03:31:09;;;;;;;;;;;;;;;1.14;100.00;97309.02;106641;1281;25461;-74
2023/01/09 03:33:35;;;;;;;;;;;;;;;1.14;100.00;97285.51;106513;1259;124987;-74
2023/01/09 03:36:03;;;;;;;;;;;;;;;1.13;100.00;97270.80;106654;1280;22522;-74
2023/01/09 03:38:29;;;;;;;;;;;;;;;1.13;100.00;97275.65;106643;1280;22669;-74
2023/01/09 03:40:57;;;;;;;;;;;;;;;1.12;100.00;97272.36;106577;1280;124236;-74
2023/01/09 03:43:24;;;;;;;;;;;;;;;1.12;100.00;97257.39;106676;1261;22655;-74
2023/01/09 03:45:51;;;;;;;;;;;;;;;1.14;100.00;97265.88;106566;1280;124482;-74
2023/01/09 03:48:17;;;;;;;;;;;;;;;1.15;100.00;97264.05;106648;1280;25158;-74
2023/01/09 03:50:46;;;;;;;;;;;;;;;1.16;100.00;97251.67;106772;1280;22548;-73
2023/01/09 03:53:13;;;;;;;;;;;;;;;1.16;100.00;97249.73;106592;1279;125262;-74
2023/01/09 03:55:47;;;;;;;;;;;;;;;1.17;100.00;97250.84;106771;1279;22594;-74
2023/01/09 03:58:15;;;;;;;;;;;;;;;1.18;100.00;97245.68;106597;1279;124761;-74
2023/01/09 04:00:42;;;;;;;;;;;;;;;1.20;100.00;97234.40;106705;1273;22518;-73
2023/01/09 04:03:09;;;;;;;;;;;;;;;1.21;100.00;97225.09;106647;1261;25302;-74
2023/01/09 04:05:35;;;;;;;;;;;;;;;1.21;100.00;97230.86;106578;1280;126069;-74
2023/01/09 04:08:02;;;;;;;;;;;;;;;1.23;100.00;97226.92;106666;1280;24207;-74
2023/01/09 04:10:29;;;;;;;;;;;;;;;1.24;100.00;97223.16;106574;1280;124089;-74
2023/01/09 04:12:56;;;;;;;;;;;;;;;1.24;100.00;97221.23;106662;1257;22511;-74
2023/01/09 04:15:23;;;;;;;;;;;;;;;1.25;100.00;97216.02;106701;1279;22544;-74
2023/01/09 04:17:50;;;;;;;;;;;;;;;1.25;100.00;97211.07;106890;1273;123926;-73
2023/01/09 04:20:17;;;;;;;;;;;;;;;1.25;100.00;97211.77;106727;1279;22509;-73
2023/01/09 04:22:44;;;;;;;;;;;;;;;1.25;100.00;97205.02;106656;1279;124428;-74
2023/01/09 04:25:11;;;;;;;;;;;;;;;1.25;100.00;97200.10;106706;1260;22541;-74
2023/01/09 04:27:37;;;;;;;;;;;;;;;1.26;100.00;97192.55;106627;1280;125536;-74
2023/01/09 04:30:04;;;;;;;;;;;;;;;1.27;100.00;97190.19;106697;1280;24374;-74
2023/01/09 04:32:31;;;;;;;;;;;;;;;1.29;100.00;97187.98;106706;1280;25390;-74
2023/01/09 04:34:58;;;;;;;;;;;;;;;1.29;100.00;97192.35;106689;1259;124295;-74
2023/01/09 04:37:25;;;;;;;;;;;;;;;1.29;100.00;97191.27;106795;1279;25111;-74
2023/01/09 04:39:54;;;;;;;;;;;;;;;1.30;100.00;97193.39;106698;1279;124382;-74
2023/01/09 04:42:22;;;;;;;;;;;;;;;1.30;100.00;97197.84;106979;1280;25391;-73
2023/01/09 04:44:52;;;;;;;;;;;;;;;1.29;100.00;97198.71;106693;1260;24245;-74
2023/01/09 04:47:19;;;;;;;;;;;;;;;1.26;100.00;97199.44;106571;1280;124495;-74
2023/01/09 04:49:46;;;;;;;;;;;;;;;1.25;100.00;97205.66;107819;1273;22613;-74
2023/01/09 04:52:13;;;;;;;;;;;;;;;1.24;100.00;97194.00;106546;1273;125965;-74
2023/01/09 04:54:40;;;;;;;;;;;;;;;1.22;100.00;97196.93;107057;1264;24511;-73
2023/01/09 04:57:07;;;;;;;;;;;;;;;1.19;100.00;97197.89;107257;1268;25286;-74
2023/01/09 04:59:34;;;;;;;;;;;;;;;1.13;99.89;97200.63;106532;1281;124168;-74
2023/01/09 05:02:01;;;;;;;;;;;;;;;1.04;99.59;97198.66;108239;1274;25301;-74
2023/01/09 05:04:27;;;;;;;;;;;;;;;0.98;99.60;97191.80;106695;1273;124178;-74
2023/01/09 05:06:54;;;;;;;;;;;;;;;0.96;100.00;97185.42;107403;1273;22606;-74
2023/01/09 05:09:21;;;;;;;;;;;;;;;0.96;100.00;97177.42;107211;1273;23503;-74
2023/01/09 05:11:49;;;;;;;;;;;;;;;0.94;100.00;97178.34;108723;1273;124046;-74
2023/01/09 05:14:16;;;;;;;;;;;;;;;0.97;100.00;97171.15;108505;1257;22525;-74
2023/01/09 05:16:42;;;;;;;;;;;;;;;1.02;100.00;97167.33;107131;1276;125819;-74
2023/01/09 05:19:09;;;;;;;;;;;;;;;1.08;100.00;97162.78;106708;1280;24259;-73
2023/01/09 05:21:36;;;;;;;;;;;;;;;1.14;100.00;97169.36;106805;1276;124379;-73
2023/01/09 05:24:03;;;;;;;;;;;;;;;1.18;100.00;97178.19;106671;1280;24103;-74
2023/01/09 05:26:30;;;;;;;;;;;;;;;1.22;100.00;97175.36;106632;1261;22638;-73
2023/01/09 05:28:57;;;;;;;;;;;;;;;1.22;100.00;97175.61;106760;1276;124208;-73
2023/01/09 05:31:25;;;;;;;;;;;;;;;1.19;100.00;97171.42;107195;1275;25285;-74
2023/01/09 05:33:52;;;;;;;;;;;;;;;1.21;100.00;97169.46;106935;1274;124317;-74
2023/01/09 05:36:19;;;;;;;;;;;;;;;1.24;100.00;97168.09;107744;1259;22507;-74
2023/01/09 05:38:45;;;;;;;;;;;;;;;1.29;100.00;97172.55;107455;1272;23006;-74
2023/01/09 05:41:12;;;;;;;;;;;;;;;1.34;100.00;97173.25;106859;1280;125201;-74
2023/01/09 05:43:39;;;;;;;;;;;;;;;1.39;100.00;97168.80;107735;1272;25436;-73
2023/01/09 05:46:05;;;;;;;;;;;;;;;1.43;100.00;97165.56;106908;1263;124662;-73
2023/01/09 05:48:32;;;;;;;;;;;;;;;1.48;100.00;97164.56;106805;1276;22515;-74
2023/01/09 05:50:59;;;;;;;;;;;;;;;1.51;100.00;97167.09;106796;1276;22508;-73
2023/01/09 05:53:26;;;;;;;;;;;;;;;1.56;100.00;97164.55;106797;1277;124605;-73
2023/01/09 05:55:52;;;;;;;;;;;;;;;1.60;100.00;97164.09;106641;1261;22580;-73
2023/01/09 05:58:19;;;;;;;;;;;;;;;1.62;100.00;97157.80;106731;1272;124225;-73
2023/01/09 06:00:47;;;;;;;;;;;;;;;1.66;100.00;97151.90;106695;1272;22517;-73
2023/01/09 06:03:14;;;;;;;;;;;;;;;1.71;100.00;97150.88;106840;1275;22535;-73
2023/01/09 06:05:40;;;;;;;;;;;;;;;1.74;100.00;97145.71;106566;1262;124162;-73
2023/01/09 06:08:07;;;;;;;;;;;;;;;1.81;100.00;97147.67;106581;1277;23253;-73
2023/01/09 06:10:34;;;;;;;;;;;;;;;1.87;100.00;97146.91;106524;1281;124347;-73
2023/01/09 06:13:01;;;;;;;;;;;;;;;1.96;100.00;97145.08;106612;1281;23889;-73
2023/01/09 06:15:28;;;;;;;;;;;;;;;2.04;100.00;97145.60;106506;1257;124336;-74
2023/01/09 06:17:54;;;;;;;;;;;;;;;2.11;100.00;97144.52;106760;1280;22501;-73
2023/01/09 06:20:21;;;;;;;;;;;;;;;2.18;100.00;97137.34;106701;1269;22928;-73
2023/01/09 06:22:50;;;;;;;;;;;;;;;2.24;100.00;97136.94;106611;1280;126224;-73
2023/01/09 06:25:18;;;;;;;;;;;;;;;2.30;100.00;97129.10;106711;1280;23495;-74
2023/01/09 06:27:44;;;;;;;;;;;;;;;2.36;100.00;97126.38;106865;1258;124866;-73
2023/01/09 06:30:11;;;;;;;;;;;;;;;2.41;100.00;97129.14;106611;1281;25245;-73
2023/01/09 06:32:38;;;;;;;;;;;;;;;2.44;100.00;97129.77;106615;1280;25417;-73
2023/01/09 06:35:05;;;;;;;;;;;;;;;2.48;100.00;97130.58;106570;1280;124107;-73
2023/01/09 06:37:32;;;;;;;;;;;;;;;2.50;100.00;97123.98;107134;1261;25334;-73
2023/01/09 06:39:59;;;;;;;;;;;;;;;2.54;100.00;97121.91;106648;1276;124335;-73
2023/01/09 06:42:26;;;;;;;;;;;;;;;2.56;100.00;97122.41;106718;1278;22533;-74
2023/01/09 06:44:53;;;;;;;;;;;;;;;2.59;100.00;97130.02;106682;1280;24203;-73
2023/01/09 06:47:19;;;;;;;;;;;;;;;2.62;100.00;97125.80;106762;1280;125269;-74
2023/01/09 06:49:46;;;;;;;;;;;;;;;2.65;100.00;97126.80;106639;1272;25280;-73
2023/01/09 06:52:13;;;;;;;;;;;;;;;2.67;100.00;97124.76;106609;1280;124194;-74
2023/01/09 06:54:40;;;;;;;;;;;;;;;2.70;100.00;97125.40;106594;1281;22541;-74
2023/01/09 06:57:06;;;;;;;;;;;;;;;2.72;100.00;97127.69;107438;1258;22665;-73
2023/01/09 06:59:33;;;;;;;;;;;;;;;2.76;100.00;97125.09;106657;1280;124459;-73
2023/01/09 07:02:00;;;;;;;;;;;;;;;2.79;100.00;97113.46;107026;1272;23658;-74
2023/01/09 07:04:27;;;;;;;;;;;;;;;2.81;100.00;97106.31;106604;1272;125389;-73
2023/01/09 07:06:54;;;;;;;;;;;;;;;2.83;100.00;97105.83;106688;1261;22606;-73
2023/01/09 07:09:21;;;;;;;;;;;;;;;2.86;100.00;97104.23;106697;1279;22512;-74
2023/01/09 07:11:48;;;;;;;;;;;;;;;2.87;100.00;97101.77;107009;1273;124051;-73
2023/01/09 07:14:14;;;;;;;;;;;;;;;2.89;100.00;97101.58;106760;1273;25287;-74
2023/01/09 07:16:41;;;;;;;;;;;;;;;2.92;100.00;97102.89;107308;1272;124286;-74
2023/01/09 07:19:08;;;;;;;;;;;;;;;2.97;100.00;97102.95;107608;1264;25376;-74
2023/01/09 07:21:35;;;;;;;;;;;;;;;3.04;100.00;97106.30;107087;1272;124881;-75
2023/01/09 07:24:01;;;;;;;;;;;;;;;3.08;100.00;97114.20;106817;1273;22565;-73
2023/01/09 07:26:28;;;;;;;;;;;;;;;3.12;100.00;97119.02;109810;1264;22396;-74
2023/01/09 07:28:55;;;;;;;;;;;;;;;3.15;100.00;97117.36;109905;1261;124298;-73
2023/01/09 07:31:22;;;;;;;;;;;;;;;3.19;100.00;97119.52;108651;1273;25227;-73
2023/01/09 07:33:48;;;;;;;;;;;;;;;3.27;100.00;97128.45;107069;1273;125455;-73
2023/01/09 07:36:15;;;;;;;;;;;;;;;3.28;100.00;97124.70;107097;1270;23643;-73
2023/01/09 07:38:42;;;;;;;;;;;;;;;3.29;100.00;97123.55;106899;1262;22514;-73
2023/01/09 07:41:09;;;;;;;;;;;;;;;3.31;100.00;97120.58;106366;1277;124554;-73
2023/01/09 07:43:37;;;;;;;;;;;;;;;3.32;100.00;97116.47;106454;1277;25265;-73
2023/01/09 07:46:04;;;;;;;;;;;;;;;3.31;100.00;97112.10;106332;1279;125612;-73
2023/01/09 07:48:31;;;;;;;;;;;;;;;3.33;100.00;97122.66;106957;1262;25214;-73
2023/01/09 07:50:58;;;;;;;;;;;;;;;3.34;100.00;97120.79;106503;1281;22635;-73
2023/01/09 07:53:25;;;;;;;;;;;;;;;3.36;100.00;97119.68;106580;1276;124190;-73
2023/01/09 07:55:52;;;;;;;;;;;;;;;3.38;100.00;97115.23;107363;1266;22528;-73
2023/01/09 07:58:19;;;;;;;;;;;;;;;3.40;100.00;97120.55;106789;1262;124431;-73
2023/01/09 08:00:45;;;;;;;;;;;;;;;3.41;100.00;97118.90;106502;1270;24286;-73
2023/01/09 08:03:12;;;;;;;;;;;;;;;3.37;99.56;97118.67;106599;1280;22571;-73
2023/01/09 08:05:39;;;;;;;;;;;;;;;3.33;99.33;97117.95;106618;1273;124523;-73
2023/01/09 08:08:06;;;;;;;;;;;;;;;3.30;99.45;97121.97;106532;1261;22498;-73
2023/01/09 08:10:32;;;;;;;;;;;;;;;3.30;99.70;97125.58;106408;1273;124702;-73
2023/01/09 08:12:59;;;;;;;;;;;;;;;3.30;99.87;97117.50;106493;1273;23872;-74
2023/01/09 08:15:26;;;;;;;;;;;;;;;3.32;100.00;97117.39;106674;1273;23842;-73
2023/01/09 08:17:53;;;;;;;;;;;;;;;3.35;100.00;97122.36;106474;1259;25393;-73
2023/01/09 08:20:20;;;;;;;;;;;;;;;3.37;100.00;97117.77;106497;1280;22602;-73
2023/01/09 08:22:50;;;;;;;;;;;;;;;3.40;100.00;97108.85;106383;1273;124941;-73
2023/01/09 08:25:17;;;;;;;;;;;;;;;3.42;100.00;97108.82;106730;1272;24694;-73
2023/01/09 08:27:44;;;;;;;;;;;;;;;3.46;100.00;97109.09;106441;1258;125417;-74
2023/01/09 08:30:11;;;;;;;;;;;;;;;3.48;100.00;97110.17;106593;1272;22523;-73
2023/01/09 08:32:40;;;;;;;;;;;;;;;3.50;99.98;97109.36;106438;1276;22512;-76
2023/01/09 08:35:07;;;;;;;;;;;;;;;3.52;99.94;97109.02;106895;1264;124653;-73
2023/01/09 08:37:34;;;;;;;;;;;;;;;3.54;99.93;97106.23;106842;1272;24331;-73
2023/01/09 08:40:01;;;;;;;;;;;;;;;3.56;99.96;97105.84;106760;1259;124189;-73
2023/01/09 08:47:59;;;;;;;;;;;;;;;3.65;99.69;97099.22;106613;1264;25344;-73
2023/01/09 08:50:25;;;;;;;;;;;;;;;3.70;99.63;97102.33;106485;1260;25450;-73
2023/01/09 08:52:52;;;;;;;;;;;;;;;3.74;99.58;97108.98;106377;1278;124096;-73
2023/01/09 08:55:19;;;;;;;;;;;;;;;3.78;99.44;97113.20;106611;1277;24238;-73
2023/01/09 08:57:47;;;;;;;;;;;;;;;3.81;99.30;97113.37;106591;1272;124284;-73
2023/01/09 09:00:15;;;;;;;;;;;;;;;3.88;99.23;97113.45;106678;1279;22778;-73
2023/01/09 09:02:42;;;;;;;;;;;;;;;3.92;99.22;97109.30;106635;1277;23117;-73
2023/01/09 09:05:09;;;;;;;;;;;;;;;3.97;99.41;97107.85;106600;1273;124022;-73
2023/01/09 09:07:36;;;;;;;;;;;;;;;4.04;99.59;97106.23;106727;1273;26500;-73
2023/01/09 09:10:03;;;;;;;;;;;;;;;4.11;99.71;97098.39;106465;1261;125570;-73
2023/01/09 09:12:30;;;;;;;;;;;;;;;4.19;99.90;97091.72;106642;1273;22663;-73
2023/01/09 09:15:12;;;;;;;;;;;;;;;4.27;99.83;97086.05;106568;1280;25249;-72
2023/01/09 09:17:39;;;;;;;;;;;;;;;4.36;99.91;97083.13;106504;1280;124064;-73
2023/01/09 09:20:08;;;;;;;;;;;;;;;4.45;99.94;97078.54;106595;1261;22511;-73
2023/01/09 09:22:35;;;;;;;;;;;;;;;4.52;99.81;97075.94;106550;1280;124240;-73
2023/01/09 09:25:03;;;;;;;;;;;;;;;4.61;99.47;97078.10;106615;1280;24337;-73
2023/01/09 09:27:30;;;;;;;;;;;;;;;4.68;99.01;97080.97;106563;1280;22515;-73
2023/01/09 09:29:57;;;;;;;;;;;;;;;4.75;98.73;97080.46;106833;1273;23947;-73
2023/01/09 09:32:24;;;;;;;;;;;;;;;4.82;98.59;97082.15;106639;1275;23967;-73
2023/01/09 09:34:51;;;;;;;;;;;;;;;4.89;98.27;97082.85;106488;1273;124123;-73
2023/01/09 09:37:18;;;;;;;;;;;;;;;4.94;98.12;97075.89;106671;1280;25335;-73
2023/01/09 09:39:44;;;;;;;;;;;;;;;5.00;97.87;97069.77;106479;1262;124763;-73
2023/01/09 09:45:35;;;;;;;;;;;;;;;5.14;97.93;97061.48;106679;1272;25462;-73
2023/01/09 09:48:15;;;;;;;;;;;;;;;5.21;97.84;97062.46;106655;1273;25318;-73
2023/01/09 09:51:09;;;;;;;;;;;;;;;5.27;97.58;97064.41;106978;1262;23393;-73
2023/01/09 09:53:40;;;;;;;;;;;;;;;5.31;97.47;97066.85;106867;1273;125252;-73
2023/01/09 09:56:10;;;;;;;;;;;;;;;5.36;97.64;97059.25;106829;1276;24383;-73
2023/01/09 09:58:42;;;;;;;;;;;;;;;5.39;97.21;97052.60;106550;1280;124784;-73
2023/01/09 10:01:11;;;;;;;;;;;;;;;5.42;96.77;97052.23;106481;1262;25397;-73
2023/01/09 10:03:43;;;;;;;;;;;;;;;5.45;96.65;97050.77;106517;1279;125119;-74
2023/01/09 10:06:14;;;;;;;;;;;;;;;5.47;96.25;97051.81;106480;1282;22630;-73
2023/01/09 10:08:52;;;;;;;;;;;;;;;5.50;96.49;97047.16;106438;1282;25267;-73
2023/01/09 10:11:21;;;;;;;;;;;;;;;5.53;96.54;97041.70;106535;1281;124375;-73
2023/01/09 10:14:03;;;;;;;;;;;;;;;5.56;96.23;97037.42;106792;1278;22510;-73
2023/01/09 10:16:30;;;;;;;;;;;;;;;5.59;95.80;97039.83;106429;1280;124666;-73
2023/01/09 10:18:57;;;;;;;;;;;;;;;5.62;95.96;97040.05;106638;1280;22579;-73
2023/01/09 10:21:24;;;;;;;;;;;;;;;5.64;95.61;97043.27;106561;1262;22511;-73
2023/01/09 10:24:00;;;;;;;;;;;;;;;5.63;95.42;97042.77;106693;1274;124482;-73
2023/01/09 10:26:30;;;;;;;;;;;;;;;5.61;95.50;97038.68;106506;1277;22778;-73
2023/01/09 10:29:15;;;;;;;;;;;;;;;5.61;95.61;97036.69;106389;1281;125086;-73
2023/01/09 10:31:45;;;;;;;;;;;;;;;5.64;96.09;97031.27;106821;1262;22515;-73
2023/01/09 10:34:12;;;;;;;;;;;;;;;5.66;95.92;97020.34;106971;1272;125013;-73
2023/01/09 10:36:58;;;;;;;;;;;;;;;5.69;95.86;97020.54;106592;1277;22556;-73
2023/01/09 10:39:38;;;;;;;;;;;;;;;5.74;96.36;97018.23;106551;1279;22512;-73
2023/01/09 10:42:10;;;;;;;;;;;;;;;5.79;96.37;97010.52;106559;1260;22700;-73
2023/01/09 10:44:43;;;;;;;;;;;;;;;5.84;96.23;97002.21;106727;1277;25332;-73
2023/01/09 10:47:42;;;;;;;;;;;;;;;5.91;96.27;96996.34;106543;1278;124441;-73
2023/01/09 10:50:31;;;;;;;;;;;;;;;5.98;96.34;96993.91;106385;1279;24230;-73
2023/01/09 10:52:59;;;;;;;;;;;;;;;6.08;96.47;96990.91;106260;1271;125327;-73
2023/01/09 10:55:25;;;;;;;;;;;;;;;6.16;96.54;96985.48;106286;1285;22548;-73
2023/01/09 10:57:56;;;;;;;;;;;;;;;6.22;95.94;96984.86;106023;1284;124622;-74
2023/01/09 11:00:23;;;;;;;;;;;;;;;6.27;95.83;96979.83;106151;1288;25354;-73
2023/01/09 11:02:51;;;;;;;;;;;;;;;6.33;95.60;96977.40;105917;1270;25449;-73
2023/01/09 11:05:26;;;;;;;;;;;;;;;6.39;95.72;96976.48;106100;1283;124101;-74
2023/01/09 11:08:23;;;;;;;;;;;;;;;6.42;95.26;96976.74;106138;1289;25334;-73
2023/01/09 11:10:49;;;;;;;;;;;;;;;6.46;95.15;96977.05;105555;1287;124785;-73
2023/01/09 11:13:24;;;;;;;;;;;;;;;6.48;94.91;96967.34;105628;1274;22820;-73
2023/01/09 11:15:58;;;;;;;;;;;;;;;6.50;94.89;96974.55;105534;1287;124740;-73
2023/01/09 11:18:26;;;;;;;;;;;;;;;6.51;94.59;96974.77;105650;1286;22525;-73
2023/01/09 11:20:52;;;;;;;;;;;;;;;6.50;94.50;96973.63;105686;1286;22527;-73
2023/01/09 11:23:23;;;;;;;;;;;;;;;6.49;94.31;96972.05;105506;1292;125249;-73
2023/01/09 11:25:52;;;;;;;;;;;;;;;6.46;94.02;96969.34;105740;1283;22520;-73
2023/01/09 11:28:19;;;;;;;;;;;;;;;6.45;94.18;96970.55;107735;1282;124522;-74
2023/01/09 11:30:59;;;;;;;;;;;;;;;6.44;94.37;96971.73;105996;1288;23277;-74
2023/01/09 11:33:26;;;;;;;;;;;;;;;6.43;94.10;96972.27;106521;1271;25550;-73
2023/01/09 11:35:57;;;;;;;;;;;;;;;6.43;94.11;96974.38;106080;1281;124660;-73
2023/01/09 11:38:24;;;;;;;;;;;;;;;6.43;94.28;96972.31;106197;1281;24223;-73
2023/01/09 11:40:58;;;;;;;;;;;;;;;6.42;94.26;96966.35;106063;1288;124239;-73
2023/01/09 11:43:29;;;;;;;;;;;;;;;6.41;94.10;96971.43;106073;1268;22527;-73
2023/01/09 11:45:58;;;;;;;;;;;;;;;6.40;94.43;96966.55;106142;1287;124141;-73
2023/01/09 11:48:30;;;;;;;;;;;;;;;6.40;94.17;96968.98;106362;1274;22504;-73
2023/01/09 11:50:58;;;;;;;;;;;;;;;6.41;94.60;96965.64;106513;1280;24475;-73
2023/01/09 11:53:25;;;;;;;;;;;;;;;6.42;94.59;96965.65;106714;1264;123974;-73
2023/01/09 11:56:02;;;;;;;;;;;;;;;6.43;94.89;96963.94;106557;1278;24215;-73
2023/01/09 11:58:30;;;;;;;;;;;;;;;6.45;94.84;96966.38;106373;1275;124506;-73
2023/01/09 12:00:58;;;;;;;;;;;;;;;6.46;94.72;96968.02;106399;1281;24385;-73
2023/01/09 12:03:25;;;;;;;;;;;;;;;6.45;94.78;96973.09;106492;1262;22524;-73
2023/01/09 12:06:02;;;;;;;;;;;;;;;6.45;94.84;96969.74;106620;1276;124538;-73
2023/01/09 12:08:29;;;;;;;;;;;;;;;6.44;94.43;96967.90;106545;1280;24209;-73
2023/01/09 12:10:55;;;;;;;;;;;;;;;6.44;94.86;96966.66;106469;1277;123959;-73
2023/01/09 12:13:41;;;;;;;;;;;;;;;6.45;94.73;96965.84;106478;1263;22518;-73
2023/01/09 12:16:23;;;;;;;;;;;;;;;6.46;94.96;96967.10;106379;1281;124910;-73
2023/01/09 12:19:03;;;;;;;;;;;;;;;6.47;94.96;96957.60;106483;1281;23879;-73
2023/01/09 12:21:44;;;;;;;;;;;;;;;6.49;95.38;96955.55;106691;1275;23377;-73
2023/01/09 12:24:43;;;;;;;;;;;;;;;6.50;95.22;96960.66;106527;1262;22519;-73
2023/01/09 12:27:27;;;;;;;;;;;;;;;6.50;94.79;96956.27;106162;1284;24217;-73
2023/01/09 12:30:03;;;;;;;;;;;;;;;6.53;95.13;96961.32;106007;1284;124552;-73
2023/01/09 12:32:36;;;;;;;;;;;;;;;6.54;95.41;96960.80;106173;1284;22525;-74
2023/01/09 12:35:03;;;;;;;;;;;;;;;6.55;95.03;96959.13;106559;1272;124175;-73
2023/01/09 12:37:48;;;;;;;;;;;;;;;6.55;94.69;96961.25;106131;1288;22523;-73
2023/01/09 12:40:15;;;;;;;;;;;;;;;6.56;94.43;96959.23;105966;1288;124380;-73
2023/01/09 12:42:57;;;;;;;;;;;;;;;6.59;94.58;96959.44;106091;1288;25395;-73
2023/01/09 12:45:39;;;;;;;;;;;;;;;6.62;94.53;96958.00;106049;1280;22520;-73
2023/01/09 12:48:09;;;;;;;;;;;;;;;6.64;94.76;96956.67;105949;1288;123863;-73
2023/01/09 12:50:39;;;;;;;;;;;;;;;6.66;95.15;96957.17;106332;1282;24375;-73
2023/01/09 12:53:38;;;;;;;;;;;;;;;6.68;94.56;96953.30;106006;1288;125735;-73
2023/01/09 12:56:25;;;;;;;;;;;;;;;6.70;94.80;96953.85;105410;1282;25330;-73
2023/01/09 12:58:56;;;;;;;;;;;;;;;6.72;94.39;96954.73;105512;1295;124414;-73
2023/01/09 13:01:27;;;;;;;;;;;;;;;6.73;94.76;96953.67;105621;1294;24339;-73